sensor_id;sensor_type;location;lat;lon;timestamp;temperature;humidity
21348;DHT22;66030;53.582;9.746;2024-02-23T00:01:07;19.20;62.00
21348;DHT22;66030;53.582;9.746;2024-02-23T00:03:35;19.20;62.10
21348;DHT22;66030;53.582;9.746;2024-02-23T00:06:04;19.20;61.90
21348;DHT22;66030;53.582;9.746;2024-02-23T00:08:32;19.10;61.90
21348;DHT22;66030;53.582;9.746;2024-02-23T00:11:00;19.10;61.80
21348;DHT22;66030;53.582;9.746;2024-02-23T00:13:29;19.10;61.80
21348;DHT22;66030;53.582;9.746;2024-02-23T00:15:58;19.10;61.70
21348;DHT22;66030;53.582;9.746;2024-02-23T00:18:25;19.10;61.60
21348;DHT22;66030;53.582;9.746;2024-02-23T00:20:53;19.00;61.60
21348;DHT22;66030;53.582;9.746;2024-02-23T00:23:23;19.00;61.50
21348;DHT22;66030;53.582;9.746;2024-02-23T00:25:51;19.00;61.60
21348;DHT22;66030;53.582;9.746;2024-02-23T00:28:19;19.00;61.50
21348;DHT22;66030;53.582;9.746;2024-02-23T00:30:49;18.90;61.50
21348;DHT22;66030;53.582;9.746;2024-02-23T00:33:16;18.90;61.40
21348;DHT22;66030;53.582;9.746;2024-02-23T00:35:44;18.90;61.50
21348;DHT22;66030;53.582;9.746;2024-02-23T00:38:12;18.90;61.40
21348;DHT22;66030;53.582;9.746;2024-02-23T00:40:40;18.90;61.40
21348;DHT22;66030;53.582;9.746;2024-02-23T00:43:08;18.90;61.30
21348;DHT22;66030;53.582;9.746;2024-02-23T00:45:36;18.80;61.40
21348;DHT22;66030;53.582;9.746;2024-02-23T00:48:06;18.80;61.20
21348;DHT22;66030;53.582;9.746;2024-02-23T00:50:35;18.80;61.10
21348;DHT22;66030;53.582;9.746;2024-02-23T00:53:03;18.80;61.10
21348;DHT22;66030;53.582;9.746;2024-02-23T00:55:31;18.70;61.10
21348;DHT22;66030;53.582;9.746;2024-02-23T00:57:59;18.70;61.00
21348;DHT22;66030;53.582;9.746;2024-02-23T01:00:27;18.70;61.00
21348;DHT22;66030;53.582;9.746;2024-02-23T01:02:55;18.70;61.00
21348;DHT22;66030;53.582;9.746;2024-02-23T01:05:25;18.60;61.10
21348;DHT22;66030;53.582;9.746;2024-02-23T01:07:54;18.60;61.00
21348;DHT22;66030;53.582;9.746;2024-02-23T01:10:22;18.60;61.10
21348;DHT22;66030;53.582;9.746;2024-02-23T01:12:50;18.60;61.10
21348;DHT22;66030;53.582;9.746;2024-02-23T01:15:17;18.60;61.00
21348;DHT22;66030;53.582;9.746;2024-02-23T01:17:45;18.60;61.00
21348;DHT22;66030;53.582;9.746;2024-02-23T01:20:14;18.60;61.00
21348;DHT22;66030;53.582;9.746;2024-02-23T01:22:43;18.60;61.10
21348;DHT22;66030;53.582;9.746;2024-02-23T01:25:11;18.50;61.10
21348;DHT22;66030;53.582;9.746;2024-02-23T01:27:42;18.50;60.90
21348;DHT22;66030;53.582;9.746;2024-02-23T01:30:12;18.50;61.00
21348;DHT22;66030;53.582;9.746;2024-02-23T01:32:40;18.40;61.00
21348;DHT22;66030;53.582;9.746;2024-02-23T01:35:08;18.50;61.00
21348;DHT22;66030;53.582;9.746;2024-02-23T01:37:37;18.40;61.00
21348;DHT22;66030;53.582;9.746;2024-02-23T01:40:08;18.40;61.00
21348;DHT22;66030;53.582;9.746;2024-02-23T01:42:36;18.40;61.00
21348;DHT22;66030;53.582;9.746;2024-02-23T01:45:05;18.40;60.90
21348;DHT22;66030;53.582;9.746;2024-02-23T01:47:33;18.40;60.90
21348;DHT22;66030;53.582;9.746;2024-02-23T01:50:02;18.40;60.90
21348;DHT22;66030;53.582;9.746;2024-02-23T01:52:31;18.30;60.80
21348;DHT22;66030;53.582;9.746;2024-02-23T01:54:59;18.40;61.00
21348;DHT22;66030;53.582;9.746;2024-02-23T01:57:29;18.40;60.80
21348;DHT22;66030;53.582;9.746;2024-02-23T02:00:17;18.40;60.80
21348;DHT22;66030;53.582;9.746;2024-02-23T02:02:47;18.40;60.70
21348;DHT22;66030;53.582;9.746;2024-02-23T02:05:15;18.40;60.70
21348;DHT22;66030;53.582;9.746;2024-02-23T02:07:44;18.40;60.70
21348;DHT22;66030;53.582;9.746;2024-02-23T02:10:13;18.30;60.70
21348;DHT22;66030;53.582;9.746;2024-02-23T02:12:42;18.30;60.70
21348;DHT22;66030;53.582;9.746;2024-02-23T02:15:11;18.30;60.70
21348;DHT22;66030;53.582;9.746;2024-02-23T02:17:39;18.30;60.70
21348;DHT22;66030;53.582;9.746;2024-02-23T02:20:11;18.30;60.60
21348;DHT22;66030;53.582;9.746;2024-02-23T02:22:39;18.30;60.60
21348;DHT22;66030;53.582;9.746;2024-02-23T02:25:08;18.30;60.50
21348;DHT22;66030;53.582;9.746;2024-02-23T02:27:36;18.30;60.50
21348;DHT22;66030;53.582;9.746;2024-02-23T02:30:07;18.20;60.50
21348;DHT22;66030;53.582;9.746;2024-02-23T02:32:36;18.20;60.50
21348;DHT22;66030;53.582;9.746;2024-02-23T02:35:05;18.20;60.40
21348;DHT22;66030;53.582;9.746;2024-02-23T02:37:33;18.20;60.50
21348;DHT22;66030;53.582;9.746;2024-02-23T02:40:03;18.20;60.40
21348;DHT22;66030;53.582;9.746;2024-02-23T02:42:32;18.20;60.40
21348;DHT22;66030;53.582;9.746;2024-02-23T02:45:00;18.20;60.50
21348;DHT22;66030;53.582;9.746;2024-02-23T02:47:30;18.10;60.50
21348;DHT22;66030;53.582;9.746;2024-02-23T02:49:58;18.20;60.40
21348;DHT22;66030;53.582;9.746;2024-02-23T02:52:26;18.10;60.30
21348;DHT22;66030;53.582;9.746;2024-02-23T02:54:55;18.10;60.30
21348;DHT22;66030;53.582;9.746;2024-02-23T02:57:23;18.10;60.40
21348;DHT22;66030;53.582;9.746;2024-02-23T02:59:51;18.10;60.20
21348;DHT22;66030;53.582;9.746;2024-02-23T03:02:19;18.10;60.30
21348;DHT22;66030;53.582;9.746;2024-02-23T03:04:49;18.10;60.30
21348;DHT22;66030;53.582;9.746;2024-02-23T03:07:17;18.10;60.30
21348;DHT22;66030;53.582;9.746;2024-02-23T03:09:45;18.10;60.30
21348;DHT22;66030;53.582;9.746;2024-02-23T03:12:13;18.10;60.20
21348;DHT22;66030;53.582;9.746;2024-02-23T03:14:41;18.10;60.30
21348;DHT22;66030;53.582;9.746;2024-02-23T03:17:09;18.10;60.20
21348;DHT22;66030;53.582;9.746;2024-02-23T03:19:37;18.10;60.20
21348;DHT22;66030;53.582;9.746;2024-02-23T03:22:07;18.10;60.20
21348;DHT22;66030;53.582;9.746;2024-02-23T03:24:35;18.10;60.20
21348;DHT22;66030;53.582;9.746;2024-02-23T03:27:03;18.10;60.20
21348;DHT22;66030;53.582;9.746;2024-02-23T03:29:31;18.10;60.10
21348;DHT22;66030;53.582;9.746;2024-02-23T03:32:00;18.10;60.10
21348;DHT22;66030;53.582;9.746;2024-02-23T03:34:29;18.00;60.20
21348;DHT22;66030;53.582;9.746;2024-02-23T03:36:57;18.00;60.20
21348;DHT22;66030;53.582;9.746;2024-02-23T03:39:29;18.00;60.20
21348;DHT22;66030;53.582;9.746;2024-02-23T03:41:58;18.00;60.10
21348;DHT22;66030;53.582;9.746;2024-02-23T03:44:26;18.00;60.20
21348;DHT22;66030;53.582;9.746;2024-02-23T03:46:54;18.00;60.10
21348;DHT22;66030;53.582;9.746;2024-02-23T03:49:22;18.00;60.20
21348;DHT22;66030;53.582;9.746;2024-02-23T03:51:50;18.00;60.10
21348;DHT22;66030;53.582;9.746;2024-02-23T03:54:18;18.00;60.10
21348;DHT22;66030;53.582;9.746;2024-02-23T03:56:47;18.00;60.10
21348;DHT22;66030;53.582;9.746;2024-02-23T03:59:15;17.90;60.10
21348;DHT22;66030;53.582;9.746;2024-02-23T04:01:43;17.90;60.10
21348;DHT22;66030;53.582;9.746;2024-02-23T04:04:11;17.90;60.10
21348;DHT22;66030;53.582;9.746;2024-02-23T04:06:40;17.90;60.00
21348;DHT22;66030;53.582;9.746;2024-02-23T04:09:08;17.90;59.90
21348;DHT22;66030;53.582;9.746;2024-02-23T04:11:36;17.90;60.00
21348;DHT22;66030;53.582;9.746;2024-02-23T04:14:06;17.90;59.90
21348;DHT22;66030;53.582;9.746;2024-02-23T04:16:34;17.90;59.90
21348;DHT22;66030;53.582;9.746;2024-02-23T04:19:01;17.90;60.00
21348;DHT22;66030;53.582;9.746;2024-02-23T04:21:29;17.90;59.90
21348;DHT22;66030;53.582;9.746;2024-02-23T04:23:57;17.90;59.90
21348;DHT22;66030;53.582;9.746;2024-02-23T04:26:25;17.90;59.90
21348;DHT22;66030;53.582;9.746;2024-02-23T04:28:53;17.90;59.90
21348;DHT22;66030;53.582;9.746;2024-02-23T04:31:23;17.90;59.90
21348;DHT22;66030;53.582;9.746;2024-02-23T04:33:50;17.90;59.90
21348;DHT22;66030;53.582;9.746;2024-02-23T04:36:19;17.90;59.90
21348;DHT22;66030;53.582;9.746;2024-02-23T04:38:47;17.80;59.90
21348;DHT22;66030;53.582;9.746;2024-02-23T04:41:19;17.80;59.90
21348;DHT22;66030;53.582;9.746;2024-02-23T04:43:47;17.80;59.80
21348;DHT22;66030;53.582;9.746;2024-02-23T04:46:15;17.80;59.80
21348;DHT22;66030;53.582;9.746;2024-02-23T04:48:45;17.80;59.80
21348;DHT22;66030;53.582;9.746;2024-02-23T04:51:13;17.80;59.70
21348;DHT22;66030;53.582;9.746;2024-02-23T04:53:41;17.80;59.80
21348;DHT22;66030;53.582;9.746;2024-02-23T04:56:09;17.80;59.70
21348;DHT22;66030;53.582;9.746;2024-02-23T04:58:37;17.80;59.90
21348;DHT22;66030;53.582;9.746;2024-02-23T05:01:05;17.90;59.80
21348;DHT22;66030;53.582;9.746;2024-02-23T05:03:34;18.00;59.60
21348;DHT22;66030;53.582;9.746;2024-02-23T05:06:04;18.10;59.40
21348;DHT22;66030;53.582;9.746;2024-02-23T05:08:32;18.10;59.30
21348;DHT22;66030;53.582;9.746;2024-02-23T05:11:00;18.30;59.20
21348;DHT22;66030;53.582;9.746;2024-02-23T05:13:29;18.30;59.00
21348;DHT22;66030;53.582;9.746;2024-02-23T05:15:57;18.40;58.70
21348;DHT22;66030;53.582;9.746;2024-02-23T05:18:25;18.50;58.60
21348;DHT22;66030;53.582;9.746;2024-02-23T05:20:53;18.60;58.50
21348;DHT22;66030;53.582;9.746;2024-02-23T05:23:22;18.60;58.40
21348;DHT22;66030;53.582;9.746;2024-02-23T05:25:50;18.70;58.30
21348;DHT22;66030;53.582;9.746;2024-02-23T05:28:18;18.80;58.20
21348;DHT22;66030;53.582;9.746;2024-02-23T05:30:46;18.80;58.10
21348;DHT22;66030;53.582;9.746;2024-02-23T05:33:14;18.80;57.90
21348;DHT22;66030;53.582;9.746;2024-02-23T05:35:42;18.90;57.90
21348;DHT22;66030;53.582;9.746;2024-02-23T05:38:10;18.90;57.80
21348;DHT22;66030;53.582;9.746;2024-02-23T05:40:39;19.00;57.70
21348;DHT22;66030;53.582;9.746;2024-02-23T05:43:07;19.00;57.90
21348;DHT22;66030;53.582;9.746;2024-02-23T05:45:35;19.10;57.80
21348;DHT22;66030;53.582;9.746;2024-02-23T05:48:04;19.10;58.00
21348;DHT22;66030;53.582;9.746;2024-02-23T05:50:33;19.10;57.90
21348;DHT22;66030;53.582;9.746;2024-02-23T05:53:01;19.20;57.90
21348;DHT22;66030;53.582;9.746;2024-02-23T05:55:31;19.20;57.80
21348;DHT22;66030;53.582;9.746;2024-02-23T05:58:00;19.20;57.90
21348;DHT22;66030;53.582;9.746;2024-02-23T06:00:28;19.20;57.90
21348;DHT22;66030;53.582;9.746;2024-02-23T06:02:57;19.20;57.90
21348;DHT22;66030;53.582;9.746;2024-02-23T06:05:25;19.20;57.90
21348;DHT22;66030;53.582;9.746;2024-02-23T06:07:55;19.10;58.00
21348;DHT22;66030;53.582;9.746;2024-02-23T06:10:23;19.10;58.00
21348;DHT22;66030;53.582;9.746;2024-02-23T06:12:51;19.10;58.00
21348;DHT22;66030;53.582;9.746;2024-02-23T06:15:24;19.10;58.10
21348;DHT22;66030;53.582;9.746;2024-02-23T06:17:51;19.10;58.00
21348;DHT22;66030;53.582;9.746;2024-02-23T06:20:19;19.10;58.10
21348;DHT22;66030;53.582;9.746;2024-02-23T06:22:47;19.10;58.10
21348;DHT22;66030;53.582;9.746;2024-02-23T06:25:15;19.10;58.10
21348;DHT22;66030;53.582;9.746;2024-02-23T06:27:45;19.10;58.20
21348;DHT22;66030;53.582;9.746;2024-02-23T06:30:13;19.10;58.30
21348;DHT22;66030;53.582;9.746;2024-02-23T06:32:42;19.20;58.40
21348;DHT22;66030;53.582;9.746;2024-02-23T06:35:12;19.10;58.50
21348;DHT22;66030;53.582;9.746;2024-02-23T06:37:41;19.20;58.60
21348;DHT22;66030;53.582;9.746;2024-02-23T06:40:09;19.10;58.10
21348;DHT22;66030;53.582;9.746;2024-02-23T06:42:37;19.00;57.80
21348;DHT22;66030;53.582;9.746;2024-02-23T06:45:06;19.00;58.90
21348;DHT22;66030;53.582;9.746;2024-02-23T06:47:34;19.10;59.10
21348;DHT22;66030;53.582;9.746;2024-02-23T06:50:05;19.10;59.10
21348;DHT22;66030;53.582;9.746;2024-02-23T06:52:33;19.20;59.00
21348;DHT22;66030;53.582;9.746;2024-02-23T06:55:01;19.20;58.80
21348;DHT22;66030;53.582;9.746;2024-02-23T06:57:29;19.20;58.80
21348;DHT22;66030;53.582;9.746;2024-02-23T06:59:57;19.30;58.80
21348;DHT22;66030;53.582;9.746;2024-02-23T07:02:25;19.30;58.80
21348;DHT22;66030;53.582;9.746;2024-02-23T07:04:53;19.20;58.60
21348;DHT22;66030;53.582;9.746;2024-02-23T07:07:24;19.20;58.60
21348;DHT22;66030;53.582;9.746;2024-02-23T07:09:55;19.10;58.70
21348;DHT22;66030;53.582;9.746;2024-02-23T07:12:23;19.10;58.80
21348;DHT22;66030;53.582;9.746;2024-02-23T07:14:51;19.20;58.80
21348;DHT22;66030;53.582;9.746;2024-02-23T07:17:19;19.20;58.80
21348;DHT22;66030;53.582;9.746;2024-02-23T07:19:47;19.20;58.70
21348;DHT22;66030;53.582;9.746;2024-02-23T07:22:17;19.20;58.70
21348;DHT22;66030;53.582;9.746;2024-02-23T07:24:48;19.20;58.70
21348;DHT22;66030;53.582;9.746;2024-02-23T07:27:16;19.20;58.60
21348;DHT22;66030;53.582;9.746;2024-02-23T07:29:44;19.20;58.70
21348;DHT22;66030;53.582;9.746;2024-02-23T07:32:12;19.20;58.70
21348;DHT22;66030;53.582;9.746;2024-02-23T07:34:40;19.20;58.70
21348;DHT22;66030;53.582;9.746;2024-02-23T07:37:08;19.20;58.70
21348;DHT22;66030;53.582;9.746;2024-02-23T07:39:36;19.20;58.70
21348;DHT22;66030;53.582;9.746;2024-02-23T07:42:06;19.20;58.70
21348;DHT22;66030;53.582;9.746;2024-02-23T07:44:36;19.20;58.50
21348;DHT22;66030;53.582;9.746;2024-02-23T07:47:05;19.20;58.60
21348;DHT22;66030;53.582;9.746;2024-02-23T07:49:33;19.20;58.50
21348;DHT22;66030;53.582;9.746;2024-02-23T07:52:01;19.30;58.40
21348;DHT22;66030;53.582;9.746;2024-02-23T07:54:29;19.20;58.50
21348;DHT22;66030;53.582;9.746;2024-02-23T07:56:56;19.30;58.40
21348;DHT22;66030;53.582;9.746;2024-02-23T07:59:25;19.20;58.40
21348;DHT22;66030;53.582;9.746;2024-02-23T08:01:55;19.30;58.40
21348;DHT22;66030;53.582;9.746;2024-02-23T08:04:23;19.30;58.40
21348;DHT22;66030;53.582;9.746;2024-02-23T08:06:51;19.30;58.40
21348;DHT22;66030;53.582;9.746;2024-02-23T08:09:18;19.30;58.40
21348;DHT22;66030;53.582;9.746;2024-02-23T08:11:49;19.30;58.30
21348;DHT22;66030;53.582;9.746;2024-02-23T08:14:18;19.30;58.40
21348;DHT22;66030;53.582;9.746;2024-02-23T08:16:47;19.30;58.30
21348;DHT22;66030;53.582;9.746;2024-02-23T08:19:16;19.30;58.30
21348;DHT22;66030;53.582;9.746;2024-02-23T08:21:44;19.30;58.30
21348;DHT22;66030;53.582;9.746;2024-02-23T08:24:12;19.40;58.20
21348;DHT22;66030;53.582;9.746;2024-02-23T08:26:40;19.30;58.20
21348;DHT22;66030;53.582;9.746;2024-02-23T08:29:08;19.30;58.20
21348;DHT22;66030;53.582;9.746;2024-02-23T08:31:36;19.40;58.20
21348;DHT22;66030;53.582;9.746;2024-02-23T08:34:09;19.40;58.10
21348;DHT22;66030;53.582;9.746;2024-02-23T08:36:37;19.40;58.10
21348;DHT22;66030;53.582;9.746;2024-02-23T08:39:05;19.40;58.10
21348;DHT22;66030;53.582;9.746;2024-02-23T08:41:33;19.50;58.00
21348;DHT22;66030;53.582;9.746;2024-02-23T08:44:02;19.50;58.00
21348;DHT22;66030;53.582;9.746;2024-02-23T08:46:30;19.50;57.90
21348;DHT22;66030;53.582;9.746;2024-02-23T08:48:57;19.50;57.80
21348;DHT22;66030;53.582;9.746;2024-02-23T08:51:26;19.60;57.90
21348;DHT22;66030;53.582;9.746;2024-02-23T08:53:54;19.60;57.70
21348;DHT22;66030;53.582;9.746;2024-02-23T08:56:27;19.70;57.70
21348;DHT22;66030;53.582;9.746;2024-02-23T08:58:54;19.70;57.50
21348;DHT22;66030;53.582;9.746;2024-02-23T09:01:22;19.70;57.50
21348;DHT22;66030;53.582;9.746;2024-02-23T09:03:50;19.70;57.50
21348;DHT22;66030;53.582;9.746;2024-02-23T09:06:18;19.70;57.50
21348;DHT22;66030;53.582;9.746;2024-02-23T09:08:48;19.70;57.50
21348;DHT22;66030;53.582;9.746;2024-02-23T09:11:15;19.70;57.50
21348;DHT22;66030;53.582;9.746;2024-02-23T09:13:43;19.70;57.50
21348;DHT22;66030;53.582;9.746;2024-02-23T09:16:11;19.80;57.40
21348;DHT22;66030;53.582;9.746;2024-02-23T09:18:40;19.80;57.50
21348;DHT22;66030;53.582;9.746;2024-02-23T09:21:08;19.80;57.50
21348;DHT22;66030;53.582;9.746;2024-02-23T09:23:36;19.80;57.60
21348;DHT22;66030;53.582;9.746;2024-02-23T09:26:10;19.80;57.40
21348;DHT22;66030;53.582;9.746;2024-02-23T09:28:38;19.80;57.40
21348;DHT22;66030;53.582;9.746;2024-02-23T09:31:08;19.80;57.40
21348;DHT22;66030;53.582;9.746;2024-02-23T09:33:36;19.80;57.40
21348;DHT22;66030;53.582;9.746;2024-02-23T09:36:05;19.80;57.30
21348;DHT22;66030;53.582;9.746;2024-02-23T09:38:32;19.80;57.40
21348;DHT22;66030;53.582;9.746;2024-02-23T09:41:00;19.80;57.30
21348;DHT22;66030;53.582;9.746;2024-02-23T09:43:30;19.80;57.30
21348;DHT22;66030;53.582;9.746;2024-02-23T09:45:59;19.80;57.40
21348;DHT22;66030;53.582;9.746;2024-02-23T09:48:28;19.80;57.50
21348;DHT22;66030;53.582;9.746;2024-02-23T09:50:57;19.70;57.50
21348;DHT22;66030;53.582;9.746;2024-02-23T09:53:26;19.80;57.40
21348;DHT22;66030;53.582;9.746;2024-02-23T09:55:54;19.80;57.40
21348;DHT22;66030;53.582;9.746;2024-02-23T09:58:23;19.80;57.40
21348;DHT22;66030;53.582;9.746;2024-02-23T10:00:53;19.80;57.30
21348;DHT22;66030;53.582;9.746;2024-02-23T10:03:21;19.80;57.30
21348;DHT22;66030;53.582;9.746;2024-02-23T10:05:52;19.70;57.30
21348;DHT22;66030;53.582;9.746;2024-02-23T10:08:20;19.80;57.40
21348;DHT22;66030;53.582;9.746;2024-02-23T10:10:48;19.70;57.30
21348;DHT22;66030;53.582;9.746;2024-02-23T10:13:18;19.70;57.30
21348;DHT22;66030;53.582;9.746;2024-02-23T10:15:47;19.80;57.30
21348;DHT22;66030;53.582;9.746;2024-02-23T10:18:37;19.80;57.30
21348;DHT22;66030;53.582;9.746;2024-02-23T10:21:05;19.80;57.30
21348;DHT22;66030;53.582;9.746;2024-02-23T10:23:33;19.80;57.30
21348;DHT22;66030;53.582;9.746;2024-02-23T10:26:04;19.80;57.20
21348;DHT22;66030;53.582;9.746;2024-02-23T10:28:32;19.80;57.30
21348;DHT22;66030;53.582;9.746;2024-02-23T10:31:01;19.80;57.20
21348;DHT22;66030;53.582;9.746;2024-02-23T10:33:30;19.80;57.20
21348;DHT22;66030;53.582;9.746;2024-02-23T10:36:00;19.70;57.30
21348;DHT22;66030;53.582;9.746;2024-02-23T10:38:28;19.70;57.30
21348;DHT22;66030;53.582;9.746;2024-02-23T10:41:01;19.70;57.20
21348;DHT22;66030;53.582;9.746;2024-02-23T10:43:39;19.70;57.20
21348;DHT22;66030;53.582;9.746;2024-02-23T10:46:09;19.80;57.20
21348;DHT22;66030;53.582;9.746;2024-02-23T10:48:41;19.70;57.20
21348;DHT22;66030;53.582;9.746;2024-02-23T10:51:14;19.70;57.20
21348;DHT22;66030;53.582;9.746;2024-02-23T10:53:46;19.80;57.10
21348;DHT22;66030;53.582;9.746;2024-02-23T10:56:16;19.70;57.10
21348;DHT22;66030;53.582;9.746;2024-02-23T10:58:44;19.70;57.20
21348;DHT22;66030;53.582;9.746;2024-02-23T11:01:13;19.70;57.20
21348;DHT22;66030;53.582;9.746;2024-02-23T11:03:43;19.70;57.20
21348;DHT22;66030;53.582;9.746;2024-02-23T11:06:16;19.70;57.20
21348;DHT22;66030;53.582;9.746;2024-02-23T11:08:49;19.70;57.10
21348;DHT22;66030;53.582;9.746;2024-02-23T11:11:18;19.70;57.20
21348;DHT22;66030;53.582;9.746;2024-02-23T11:13:46;19.70;57.20
21348;DHT22;66030;53.582;9.746;2024-02-23T11:16:22;19.70;57.20
21348;DHT22;66030;53.582;9.746;2024-02-23T11:19:03;19.70;57.20
21348;DHT22;66030;53.582;9.746;2024-02-23T11:21:36;19.70;57.20
21348;DHT22;66030;53.582;9.746;2024-02-23T11:24:05;19.70;57.20
21348;DHT22;66030;53.582;9.746;2024-02-23T11:26:37;19.70;57.20
21348;DHT22;66030;53.582;9.746;2024-02-23T11:29:10;19.70;57.20
21348;DHT22;66030;53.582;9.746;2024-02-23T11:31:44;19.70;57.10
21348;DHT22;66030;53.582;9.746;2024-02-23T11:34:12;19.70;57.20
21348;DHT22;66030;53.582;9.746;2024-02-23T11:36:41;19.80;57.20
21348;DHT22;66030;53.582;9.746;2024-02-23T11:39:10;19.80;57.20
21348;DHT22;66030;53.582;9.746;2024-02-23T11:41:39;19.80;57.10
21348;DHT22;66030;53.582;9.746;2024-02-23T11:44:08;19.80;57.10
21348;DHT22;66030;53.582;9.746;2024-02-23T11:46:36;19.80;57.10
21348;DHT22;66030;53.582;9.746;2024-02-23T11:49:04;19.80;57.10
21348;DHT22;66030;53.582;9.746;2024-02-23T11:51:33;19.80;57.00
21348;DHT22;66030;53.582;9.746;2024-02-23T11:54:03;19.80;57.10
21348;DHT22;66030;53.582;9.746;2024-02-23T11:56:30;19.90;57.10
21348;DHT22;66030;53.582;9.746;2024-02-23T11:58:59;19.90;56.90
21348;DHT22;66030;53.582;9.746;2024-02-23T12:01:29;19.90;57.00
21348;DHT22;66030;53.582;9.746;2024-02-23T12:03:57;19.90;56.90
21348;DHT22;66030;53.582;9.746;2024-02-23T12:06:25;19.90;56.90
21348;DHT22;66030;53.582;9.746;2024-02-23T12:08:57;19.90;56.90
21348;DHT22;66030;53.582;9.746;2024-02-23T12:11:26;19.80;56.90
21348;DHT22;66030;53.582;9.746;2024-02-23T12:13:55;19.90;56.90
21348;DHT22;66030;53.582;9.746;2024-02-23T12:16:26;19.90;56.90
21348;DHT22;66030;53.582;9.746;2024-02-23T12:18:55;19.90;56.90
21348;DHT22;66030;53.582;9.746;2024-02-23T12:21:23;19.90;56.90
21348;DHT22;66030;53.582;9.746;2024-02-23T12:23:51;19.90;56.90
21348;DHT22;66030;53.582;9.746;2024-02-23T12:26:19;19.80;56.90
21348;DHT22;66030;53.582;9.746;2024-02-23T12:28:49;19.90;56.90
21348;DHT22;66030;53.582;9.746;2024-02-23T12:31:23;19.80;56.90
21348;DHT22;66030;53.582;9.746;2024-02-23T12:33:51;19.80;56.90
21348;DHT22;66030;53.582;9.746;2024-02-23T12:36:19;19.90;56.90
21348;DHT22;66030;53.582;9.746;2024-02-23T12:38:47;19.90;56.90
21348;DHT22;66030;53.582;9.746;2024-02-23T12:41:15;19.90;56.90
21348;DHT22;66030;53.582;9.746;2024-02-23T12:43:43;19.90;56.90
21348;DHT22;66030;53.582;9.746;2024-02-23T12:46:15;19.90;56.80
21348;DHT22;66030;53.582;9.746;2024-02-23T12:48:43;19.90;56.90
21348;DHT22;66030;53.582;9.746;2024-02-23T12:51:11;19.90;56.80
21348;DHT22;66030;53.582;9.746;2024-02-23T12:53:41;19.90;56.70
21348;DHT22;66030;53.582;9.746;2024-02-23T12:56:10;19.90;56.70
21348;DHT22;66030;53.582;9.746;2024-02-23T12:58:41;19.90;56.90
21348;DHT22;66030;53.582;9.746;2024-02-23T13:01:09;19.90;56.80
21348;DHT22;66030;53.582;9.746;2024-02-23T13:03:39;19.90;56.80
21348;DHT22;66030;53.582;9.746;2024-02-23T13:06:08;19.90;56.80
21348;DHT22;66030;53.582;9.746;2024-02-23T13:08:36;19.90;56.80
21348;DHT22;66030;53.582;9.746;2024-02-23T13:11:05;19.90;56.90
21348;DHT22;66030;53.582;9.746;2024-02-23T13:13:34;19.90;56.90
21348;DHT22;66030;53.582;9.746;2024-02-23T13:16:02;19.90;57.00
21348;DHT22;66030;53.582;9.746;2024-02-23T13:18:30;19.90;56.90
21348;DHT22;66030;53.582;9.746;2024-02-23T13:20:59;19.90;57.00
21348;DHT22;66030;53.582;9.746;2024-02-23T13:23:27;19.90;57.00
21348;DHT22;66030;53.582;9.746;2024-02-23T13:25:55;19.90;57.00
21348;DHT22;66030;53.582;9.746;2024-02-23T13:28:22;19.90;57.00
21348;DHT22;66030;53.582;9.746;2024-02-23T13:30:50;19.90;57.00
21348;DHT22;66030;53.582;9.746;2024-02-23T13:33:18;19.90;56.90
21348;DHT22;66030;53.582;9.746;2024-02-23T13:35:47;19.90;57.00
21348;DHT22;66030;53.582;9.746;2024-02-23T13:38:17;19.80;56.90
21348;DHT22;66030;53.582;9.746;2024-02-23T13:40:48;19.80;57.00
21348;DHT22;66030;53.582;9.746;2024-02-23T13:43:17;19.80;57.10
21348;DHT22;66030;53.582;9.746;2024-02-23T13:45:49;19.80;57.10
21348;DHT22;66030;53.582;9.746;2024-02-23T13:48:18;19.90;57.00
21348;DHT22;66030;53.582;9.746;2024-02-23T13:50:46;19.90;57.10
21348;DHT22;66030;53.582;9.746;2024-02-23T13:53:14;19.80;57.10
21348;DHT22;66030;53.582;9.746;2024-02-23T13:55:44;19.80;57.10
21348;DHT22;66030;53.582;9.746;2024-02-23T13:58:12;19.80;57.10
21348;DHT22;66030;53.582;9.746;2024-02-23T14:00:40;19.80;57.10
21348;DHT22;66030;53.582;9.746;2024-02-23T14:03:08;19.80;57.10
21348;DHT22;66030;53.582;9.746;2024-02-23T14:05:40;19.80;57.10
21348;DHT22;66030;53.582;9.746;2024-02-23T14:08:11;19.80;57.20
21348;DHT22;66030;53.582;9.746;2024-02-23T14:10:39;19.90;57.10
21348;DHT22;66030;53.582;9.746;2024-02-23T14:13:10;19.90;56.90
21348;DHT22;66030;53.582;9.746;2024-02-23T14:15:39;19.90;56.90
21348;DHT22;66030;53.582;9.746;2024-02-23T14:18:07;19.90;56.90
21348;DHT22;66030;53.582;9.746;2024-02-23T14:20:35;19.90;56.90
21348;DHT22;66030;53.582;9.746;2024-02-23T14:23:03;19.90;57.00
21348;DHT22;66030;53.582;9.746;2024-02-23T14:25:31;19.90;57.00
21348;DHT22;66030;53.582;9.746;2024-02-23T14:27:59;19.90;57.00
21348;DHT22;66030;53.582;9.746;2024-02-23T14:30:28;19.90;57.00
21348;DHT22;66030;53.582;9.746;2024-02-23T14:32:56;19.90;57.00
21348;DHT22;66030;53.582;9.746;2024-02-23T14:35:24;19.90;56.90
21348;DHT22;66030;53.582;9.746;2024-02-23T14:37:52;19.90;57.10
21348;DHT22;66030;53.582;9.746;2024-02-23T14:40:20;19.80;57.10
21348;DHT22;66030;53.582;9.746;2024-02-23T14:42:48;19.80;57.10
21348;DHT22;66030;53.582;9.746;2024-02-23T14:45:16;19.80;57.10
21348;DHT22;66030;53.582;9.746;2024-02-23T14:47:45;19.80;57.00
21348;DHT22;66030;53.582;9.746;2024-02-23T14:50:13;19.90;57.10
21348;DHT22;66030;53.582;9.746;2024-02-23T14:52:41;19.80;57.00
21348;DHT22;66030;53.582;9.746;2024-02-23T14:55:11;19.90;57.00
21348;DHT22;66030;53.582;9.746;2024-02-23T14:57:40;19.80;56.90
21348;DHT22;66030;53.582;9.746;2024-02-23T15:00:09;19.90;56.90
21348;DHT22;66030;53.582;9.746;2024-02-23T15:02:37;19.80;56.90
21348;DHT22;66030;53.582;9.746;2024-02-23T15:05:07;19.80;56.00
21348;DHT22;66030;53.582;9.746;2024-02-23T15:07:36;19.70;56.70
21348;DHT22;66030;53.582;9.746;2024-02-23T15:10:05;19.70;56.90
21348;DHT22;66030;53.582;9.746;2024-02-23T15:12:35;19.70;56.90
21348;DHT22;66030;53.582;9.746;2024-02-23T15:15:04;19.80;56.90
21348;DHT22;66030;53.582;9.746;2024-02-23T15:17:33;19.80;56.90
21348;DHT22;66030;53.582;9.746;2024-02-23T15:20:01;19.70;57.10
21348;DHT22;66030;53.582;9.746;2024-02-23T15:22:31;19.70;57.00
21348;DHT22;66030;53.582;9.746;2024-02-23T15:24:59;19.70;57.00
21348;DHT22;66030;53.582;9.746;2024-02-23T15:27:27;19.70;57.00
21348;DHT22;66030;53.582;9.746;2024-02-23T15:29:54;19.80;57.00
21348;DHT22;66030;53.582;9.746;2024-02-23T15:32:22;19.80;57.00
21348;DHT22;66030;53.582;9.746;2024-02-23T15:34:50;19.80;56.90
21348;DHT22;66030;53.582;9.746;2024-02-23T15:37:18;19.80;56.90
21348;DHT22;66030;53.582;9.746;2024-02-23T15:39:47;19.80;56.90